Warning: Javascript must be enabled to use all the features on this page!


Page Loading - Please Wait...

Click to hideNews Bulletins

Peak Streamflow for the Nation

USGS 13014500 GROS VENTRE RIVER AT KELLY, WY

Teton County, Wyoming
Hydrologic Unit Code 17040102
Latitude  43°37'15.2", Longitude 110°37'23" NAD83
Drainage area 622  square miles
Gage datum 6,750 feet above NGVD29
Output formats
Table
Graph
Tab-separated file
peakfq (watstore) format
Reselect output format
Water
Year
Date Gage
Height
(feet)
Stream-
flow
(cfs)
1918 1918-06-16 9.95 6,9605,7
1945 1945-06-26 5.633,6 2,9305
1946 1946-06-07 5.56 2,7805
1947 1947-05-10 6.24 3,1005
1948 1948-05-30 6.33 3,2005
1949 1949-06-12 5.556 2,4805
1950 1950-06-08 6.643 3,5105
1951 1951-05-29 7.09 4,1405
1952 1952-06-08 5.75 2,9605
1953 1953-06-15 5.95 3,1405
1954 1954-05-22 3.353,6 3,9505
1955 1955-06-17 1.85 2,1605
1956 1956-06-02 5.753,6 5,0005
1957 1957-06-08 4.65 3,8105
1958 1958-05-24 3.956 2,7205
2008 2008-05-22 6.443,6 3,6805
2009 2009-06-02 6.61 3,9205
2010 2010-06-08 5.70 2,7905
2011 2011-06-25 7.24 4,8805
2012 2012-06-05 4.97 2,4105
2013 2013-05-15 4.02 2,7305
2014 2014-05-28 4.82 4,1305
2015 2015-06-02 7.296 2,3505
2016 2016-06-08 7.21 2,2705
2017 2017-06-08 9.87 5,4705
2018 2018-06-01 9.12 4,4905
2019 2019-06-08 8.02 3,3605
2020 2020-06-01 8.72 4,0305
2021 2021-06-05 7.15 2,3605
?
  Peak Gage-Height Qualification Codes.
?
  Peak Streamflow Qualification Codes.